createdAt,value
2023-05-03T08:47:05.028Z,4.63
2023-05-03T08:49:38.081Z,4.53
2023-05-03T08:52:06.977Z,5.53
2023-05-03T08:54:34.664Z,4.47
2023-05-03T08:57:01.974Z,4.03
2023-05-03T08:59:29.846Z,4.37
2023-05-03T09:01:57.564Z,3.87
2023-05-03T09:04:34.999Z,4.83
2023-05-03T09:07:14.545Z,4.53
2023-05-03T09:12:11.179Z,4.20
2023-05-03T09:14:46.741Z,3.83
2023-05-03T09:17:16.460Z,4.13
2023-05-03T09:20:02.743Z,4.50
2023-05-03T09:22:34.542Z,4.43
2023-05-03T09:25:01.940Z,3.70
2023-05-03T09:27:29.342Z,3.83
2023-05-03T09:29:57.079Z,4.67
2023-05-03T09:32:25.428Z,4.30
2023-05-03T09:35:08.713Z,3.60
2023-05-03T09:37:38.959Z,3.37
2023-05-03T09:40:11.737Z,3.57
2023-05-03T09:42:43.799Z,4.00
2023-05-03T09:45:11.533Z,3.87
2023-05-03T09:47:52.004Z,3.63
2023-05-03T09:50:19.733Z,3.53
2023-05-03T09:52:47.651Z,3.70
2023-05-03T09:55:17.516Z,3.13
2023-05-03T09:57:47.971Z,3.17
2023-05-03T10:00:17.418Z,3.27
2023-05-03T10:02:45.830Z,3.17
2023-05-03T10:05:14.100Z,3.25
2023-05-03T10:07:43.566Z,3.60
2023-05-03T10:10:12.284Z,3.30
2023-05-03T10:12:42.908Z,3.12
2023-05-03T10:15:13.880Z,3.40
2023-05-03T10:17:48.433Z,3.67
2023-05-03T10:20:32.406Z,3.67
2023-05-03T10:23:06.334Z,3.40
2023-05-03T10:25:36.546Z,3.57
2023-05-03T10:28:09.093Z,3.50
2023-05-03T10:30:40.778Z,3.43
2023-05-03T10:33:14.485Z,3.47
2023-05-03T10:35:44.626Z,3.30
2023-05-03T10:38:21.841Z,3.50
2023-05-03T10:40:49.900Z,4.00
2023-05-03T10:43:37.229Z,3.30
2023-05-03T10:46:06.908Z,3.20
2023-05-03T10:48:35.694Z,4.13
2023-05-03T10:51:29.217Z,3.72
2023-05-03T10:53:57.103Z,3.77
2023-05-03T10:56:24.694Z,4.13
2023-05-03T10:58:56.260Z,4.27
2023-05-03T11:01:25.014Z,3.97
2023-05-03T11:03:56.829Z,4.35
2023-05-03T11:06:33.039Z,4.03
2023-05-03T11:09:01.746Z,3.80
2023-05-03T11:11:30.232Z,4.10
2023-05-03T11:13:58.060Z,4.00
2023-05-03T11:16:26.203Z,3.77
2023-05-03T11:18:54.256Z,4.20
2023-05-03T11:21:21.598Z,4.00
2023-05-03T11:23:49.107Z,3.87
2023-05-03T11:26:17.062Z,4.33
2023-05-03T11:28:45.435Z,4.33
2023-05-03T11:31:13.920Z,4.75
2023-05-03T11:33:41.902Z,4.30
2023-05-03T11:36:09.993Z,4.60
2023-05-03T11:38:39.759Z,4.25
2023-05-03T11:41:17.824Z,3.93
2023-05-03T11:44:00.499Z,4.50
2023-05-03T11:46:39.439Z,4.03
2023-05-03T11:49:07.160Z,4.90
2023-05-03T11:51:35.040Z,4.40
2023-05-03T11:54:13.555Z,4.50
2023-05-03T11:56:52.855Z,3.80
2023-05-03T11:59:21.017Z,3.87
2023-05-03T12:01:49.632Z,3.90
2023-05-03T12:06:54.084Z,3.90
2023-05-03T12:09:27.313Z,3.83
2023-05-03T12:11:56.037Z,4.53
2023-05-03T12:14:24.826Z,3.97
2023-05-03T12:16:56.627Z,3.93
2023-05-03T12:19:26.896Z,5.10
2023-05-03T12:22:09.415Z,4.00
2023-05-03T12:24:45.193Z,4.27
2023-05-03T12:27:14.247Z,4.67
2023-05-03T12:29:42.269Z,4.37
2023-05-03T12:32:12.135Z,4.60
2023-05-03T12:34:41.439Z,4.83
2023-05-03T12:37:11.678Z,5.50
2023-05-03T12:39:40.532Z,5.00
2023-05-03T12:42:09.368Z,5.12
2023-05-03T12:47:11.395Z,4.93
2023-05-03T12:49:40.320Z,4.30
2023-05-03T12:54:41.478Z,4.40
2023-05-03T12:57:15.514Z,5.00
2023-05-03T12:59:51.376Z,4.87
2023-05-03T13:05:01.803Z,6.10
2023-05-03T13:07:31.695Z,5.87
2023-05-03T13:12:32.930Z,9.83
2023-05-03T13:15:02.903Z,6.87
2023-05-03T13:17:32.700Z,6.97
2023-05-03T13:20:00.220Z,6.87
2023-05-03T13:22:27.909Z,7.43
2023-05-03T13:24:56.301Z,7.50
2023-05-03T13:27:23.773Z,13.43
2023-05-03T13:29:51.611Z,17.80
2023-05-03T13:32:19.568Z,10.80
2023-05-03T13:34:47.241Z,14.43
2023-05-03T13:37:19.407Z,13.40
2023-05-03T13:39:47.368Z,9.30
2023-05-03T13:42:14.937Z,10.73
2023-05-03T13:44:46.658Z,14.85
2023-05-03T13:47:14.871Z,10.57
2023-05-03T13:49:42.285Z,9.90
2023-05-03T13:52:09.689Z,13.13
2023-05-03T13:54:37.618Z,11.50
2023-05-03T13:57:04.987Z,16.03
2023-05-03T13:59:32.280Z,12.27
2023-05-03T14:02:00.540Z,12.37
2023-05-03T14:04:28.530Z,12.43
2023-05-03T14:06:55.979Z,10.83
2023-05-03T14:09:23.764Z,10.43
2023-05-03T14:11:51.707Z,10.37
2023-05-03T14:14:18.966Z,10.50
2023-05-03T14:16:47.245Z,10.60
2023-05-03T14:19:17.633Z,10.48
2023-05-03T14:21:46.914Z,9.63
2023-05-03T14:24:14.565Z,13.27
2023-05-03T14:26:41.970Z,9.00
2023-05-03T14:29:09.376Z,10.30
2023-05-03T14:31:37.115Z,10.60
2023-05-03T14:34:04.487Z,11.43
2023-05-03T14:36:38.799Z,10.67
2023-05-03T14:39:07.070Z,11.17
2023-05-03T14:41:34.620Z,35.70
2023-05-03T14:44:02.291Z,20.93
2023-05-03T14:46:30.002Z,22.70
2023-05-03T14:48:57.483Z,18.77
2023-05-03T14:51:24.847Z,13.33
2023-05-03T14:53:52.776Z,11.20
2023-05-03T14:56:20.178Z,10.63
2023-05-03T14:58:47.472Z,11.53
2023-05-03T15:01:19.899Z,12.13
2023-05-03T15:03:47.316Z,11.13
2023-05-03T15:06:15.402Z,11.30
2023-05-03T15:08:43.249Z,19.77
2023-05-03T15:11:10.798Z,11.63
2023-05-03T15:13:38.494Z,11.47
2023-05-03T15:16:07.004Z,13.00
2023-05-03T15:18:34.388Z,13.27
2023-05-03T15:21:02.084Z,19.83
2023-05-03T15:23:29.502Z,13.63
2023-05-03T15:25:56.929Z,9.77
2023-05-03T15:28:24.596Z,10.47
2023-05-03T15:30:52.008Z,8.77
2023-05-03T15:33:19.825Z,9.77
2023-05-03T15:35:47.558Z,9.55
2023-05-03T15:38:15.056Z,12.60
2023-05-03T15:40:42.396Z,20.47
2023-05-03T15:43:10.078Z,71.53
2023-05-03T15:45:37.411Z,22.83
2023-05-03T15:48:04.988Z,17.77
2023-05-03T15:50:32.756Z,26.93
2023-05-03T15:53:00.532Z,17.00
2023-05-03T15:55:27.852Z,9.57
2023-05-03T15:57:57.262Z,8.30
2023-05-03T16:00:25.715Z,8.27
2023-05-03T16:02:53.443Z,13.23
2023-05-03T16:05:20.918Z,13.03
2023-05-03T16:07:48.382Z,10.50
2023-05-03T16:10:17.133Z,9.33
2023-05-03T16:12:44.537Z,9.00
2023-05-03T16:15:12.552Z,12.57
2023-05-03T16:17:40.380Z,8.88
2023-05-03T16:20:10.997Z,8.27
2023-05-03T16:22:38.685Z,9.03
2023-05-03T16:25:12.872Z,11.27
2023-05-03T16:27:42.927Z,11.60
2023-05-03T16:30:10.959Z,11.67
2023-05-03T16:32:38.460Z,11.40
2023-05-03T16:35:06.291Z,10.30
2023-05-03T16:37:37.253Z,8.80
2023-05-03T16:40:11.724Z,9.30
2023-05-03T16:42:39.689Z,10.73
2023-05-03T16:45:16.061Z,9.87
2023-05-03T16:47:46.349Z,8.17
2023-05-03T16:50:14.074Z,14.80
2023-05-03T16:52:43.555Z,11.70
2023-05-03T16:55:12.713Z,12.97
2023-05-03T16:57:40.465Z,13.57
2023-05-03T17:00:09.811Z,13.67
2023-05-03T17:02:39.180Z,11.60
2023-05-03T17:05:13.054Z,12.18
2023-05-03T17:07:43.102Z,11.57
2023-05-03T17:10:10.722Z,14.87
2023-05-03T17:12:38.200Z,13.57
2023-05-03T17:15:06.631Z,14.97
2023-05-03T17:17:33.915Z,11.70
2023-05-03T17:20:01.427Z,14.43
2023-05-03T17:22:29.372Z,13.27
2023-05-03T17:24:59.774Z,14.57
2023-05-03T17:27:27.173Z,14.53
2023-05-03T17:29:57.626Z,11.90
2023-05-03T17:32:25.089Z,13.20
2023-05-03T17:34:52.440Z,12.43
2023-05-03T17:37:20.476Z,16.27
2023-05-03T17:39:47.761Z,15.30
2023-05-03T17:42:15.040Z,16.77
2023-05-03T17:44:42.860Z,15.73
2023-05-03T17:47:11.306Z,11.83
2023-05-03T17:49:38.668Z,13.77
2023-05-03T17:52:07.252Z,17.93
2023-05-03T17:54:35.418Z,13.25
2023-05-03T17:57:03.945Z,13.43
2023-05-03T17:59:31.754Z,14.38
2023-05-03T18:01:59.162Z,14.77
2023-05-03T18:04:27.299Z,12.93
2023-05-03T18:06:54.852Z,13.13
2023-05-03T18:09:24.000Z,14.67
2023-05-03T18:11:54.792Z,32.97
2023-05-03T18:14:22.266Z,14.32
2023-05-03T18:16:49.744Z,17.33
2023-05-03T18:19:17.434Z,17.17
2023-05-03T18:21:44.819Z,15.13
2023-05-03T18:24:12.128Z,13.83
2023-05-03T18:26:39.842Z,16.60
2023-05-03T18:29:07.991Z,14.60
2023-05-03T18:31:37.275Z,12.90
2023-05-03T18:34:05.374Z,11.53
2023-05-03T18:36:32.837Z,15.93
2023-05-03T18:39:00.196Z,18.73
2023-05-03T18:41:28.091Z,16.00
2023-05-03T18:43:57.416Z,18.53
2023-05-03T18:46:24.999Z,18.90
2023-05-03T18:48:53.627Z,13.10
2023-05-03T18:51:20.964Z,21.42
2023-05-03T18:53:48.313Z,16.30
2023-05-03T18:56:15.989Z,12.83
2023-05-03T18:58:43.340Z,13.37
2023-05-03T19:01:10.792Z,10.67
2023-05-03T19:03:38.559Z,9.20
2023-05-03T19:06:08.684Z,9.67
2023-05-03T19:08:36.013Z,9.33
2023-05-03T19:11:11.256Z,9.20
2023-05-03T19:13:39.323Z,9.57
2023-05-03T19:16:07.473Z,9.63
2023-05-03T19:18:37.507Z,9.43
2023-05-03T19:21:05.145Z,9.70
2023-05-03T19:23:33.367Z,8.60
2023-05-03T19:26:00.947Z,8.87
2023-05-03T19:28:28.382Z,8.93
2023-05-03T19:30:56.212Z,8.40
2023-05-03T19:33:23.673Z,10.10
2023-05-03T19:35:51.560Z,13.30
2023-05-03T19:38:19.470Z,13.60
2023-05-03T19:40:57.677Z,10.73
2023-05-03T19:43:26.136Z,9.55
2023-05-03T19:45:53.579Z,11.83
2023-05-03T19:48:20.957Z,10.57
2023-05-03T19:50:48.645Z,9.43
2023-05-03T19:53:16.306Z,12.73
2023-05-03T19:55:55.067Z,18.43
2023-05-03T20:00:50.072Z,10.60
2023-05-03T20:03:18.341Z,11.93
2023-05-03T20:05:47.244Z,11.33
2023-05-03T20:08:14.786Z,11.75
2023-05-03T20:10:44.710Z,11.43
2023-05-03T20:13:13.746Z,12.80
2023-05-03T20:15:42.435Z,12.65
2023-05-03T20:18:10.122Z,12.27
2023-05-03T20:20:37.668Z,12.57
2023-05-03T20:23:05.109Z,12.17
2023-05-03T20:25:32.775Z,11.10
2023-05-03T20:28:00.485Z,12.33
2023-05-03T20:30:29.348Z,13.80
2023-05-03T20:35:24.481Z,16.03
2023-05-03T20:37:51.754Z,17.93
2023-05-03T20:40:19.438Z,16.37
2023-05-03T20:42:46.878Z,18.30
2023-05-03T20:45:14.159Z,18.83
2023-05-03T20:47:41.822Z,15.30
2023-05-03T20:50:09.590Z,16.77
2023-05-03T20:52:36.912Z,15.53
2023-05-03T20:55:04.893Z,16.30
2023-05-03T20:57:32.331Z,15.97
2023-05-03T21:00:00.279Z,18.13
2023-05-03T21:02:28.050Z,17.60
2023-05-03T21:04:55.443Z,30.10
2023-05-03T21:07:22.902Z,20.63
2023-05-03T21:09:50.632Z,27.13
2023-05-03T21:12:17.908Z,23.50
2023-05-03T21:14:45.339Z,20.53
2023-05-03T21:17:13.069Z,18.43
2023-05-03T21:19:40.524Z,18.07
2023-05-03T21:22:11.894Z,15.47
2023-05-03T21:24:39.454Z,15.17
2023-05-03T21:27:06.772Z,14.73
2023-05-03T21:29:34.070Z,14.00
2023-05-03T21:32:01.816Z,14.27
2023-05-03T21:34:29.130Z,14.23
2023-05-03T21:36:56.551Z,14.60
2023-05-03T21:39:24.305Z,13.33
2023-05-03T21:41:51.583Z,14.47
2023-05-03T21:44:18.835Z,14.07
2023-05-03T21:46:46.738Z,15.23
2023-05-03T21:49:15.441Z,15.60
2023-05-03T21:51:42.732Z,14.68
2023-05-03T21:54:10.382Z,15.10
2023-05-03T21:56:37.808Z,15.67
2023-05-03T21:59:05.882Z,15.80
2023-05-03T22:01:33.528Z,15.15
2023-05-03T22:04:01.841Z,14.47
2023-05-03T22:06:31.232Z,14.53
2023-05-03T22:08:58.518Z,14.93
2023-05-03T22:11:26.260Z,14.60
2023-05-03T22:14:06.498Z,14.00
2023-05-03T22:16:38.011Z,15.13
2023-05-03T22:19:05.634Z,15.13
2023-05-03T22:21:32.990Z,16.37
2023-05-03T22:24:02.191Z,17.70
2023-05-03T22:26:29.976Z,17.97
2023-05-03T22:28:57.374Z,14.00
2023-05-03T22:31:25.205Z,15.90
2023-05-03T22:33:52.782Z,12.60
2023-05-03T22:36:20.000Z,12.43
2023-05-03T22:38:47.654Z,12.63
2023-05-03T22:41:14.994Z,13.97
2023-05-03T22:43:42.697Z,13.97
2023-05-03T22:46:10.465Z,15.20
2023-05-03T22:48:37.689Z,13.80
2023-05-03T22:51:05.595Z,14.80
2023-05-03T22:53:33.341Z,15.20
2023-05-03T22:56:04.430Z,14.13
2023-05-03T22:58:32.152Z,15.57
2023-05-03T23:00:59.814Z,15.80
2023-05-03T23:03:27.697Z,14.87
2023-05-03T23:05:55.349Z,16.47
2023-05-03T23:08:23.625Z,15.90
2023-05-03T23:10:50.953Z,15.77
2023-05-03T23:13:18.298Z,15.90
2023-05-03T23:15:46.002Z,15.93
2023-05-03T23:18:13.659Z,15.40
2023-05-03T23:20:41.215Z,15.80
2023-05-03T23:23:09.144Z,16.97
2023-05-03T23:25:37.788Z,15.52
2023-05-03T23:28:05.623Z,15.63
2023-05-03T23:30:33.641Z,17.05
2023-05-03T23:33:01.424Z,16.07
2023-05-03T23:35:28.990Z,16.67
2023-05-03T23:37:56.631Z,16.57
2023-05-03T23:40:24.197Z,16.83
2023-05-03T23:42:51.551Z,15.40
2023-05-03T23:45:19.197Z,16.17
2023-05-03T23:47:46.592Z,16.07
2023-05-03T23:50:14.157Z,15.10
2023-05-03T23:52:42.248Z,15.90
2023-05-03T23:55:10.508Z,15.80
2023-05-03T23:57:38.101Z,15.17
